createdAt,value
2022-12-25T00:01:22.518Z,6.60
2022-12-25T00:03:25.317Z,6.80
2022-12-25T00:05:28.020Z,7.50
2022-12-25T00:07:30.918Z,9.50
2022-12-25T00:09:33.696Z,8.40
2022-12-25T00:11:36.499Z,7.60
2022-12-25T00:13:39.330Z,7.20
2022-12-25T00:15:42.139Z,6.20
2022-12-25T00:17:44.795Z,6.60
2022-12-25T00:19:47.529Z,7.40
2022-12-25T00:21:50.250Z,6.60
2022-12-25T00:23:55.159Z,9.20
2022-12-25T00:25:58.016Z,6.60
2022-12-25T00:28:00.680Z,7.60
2022-12-25T00:30:04.326Z,7.50
2022-12-25T00:32:07.178Z,6.50
2022-12-25T00:34:09.825Z,7.60
2022-12-25T00:36:14.948Z,9.90
2022-12-25T00:38:17.739Z,7.10
2022-12-25T00:40:20.367Z,6.80
2022-12-25T00:42:23.115Z,7.60
2022-12-25T00:44:25.813Z,6.80
2022-12-25T00:46:28.518Z,5.50
2022-12-25T00:48:31.873Z,6.10
2022-12-25T00:50:37.110Z,7.40
2022-12-25T00:52:40.125Z,6.80
2022-12-25T00:54:42.819Z,6.10
2022-12-25T00:56:45.600Z,6.40
2022-12-25T00:58:48.270Z,6.50
2022-12-25T01:00:51.316Z,8.70
2022-12-25T01:02:54.051Z,7.00
2022-12-25T01:04:57.410Z,5.80
2022-12-25T01:07:00.123Z,6.50
2022-12-25T01:09:03.143Z,6.90
2022-12-25T01:11:07.358Z,6.90
2022-12-25T01:13:10.024Z,8.20
2022-12-25T01:15:13.452Z,11.40
2022-12-25T01:17:16.060Z,6.70
2022-12-25T01:19:19.067Z,6.50
2022-12-25T01:21:22.181Z,5.30
2022-12-25T01:23:24.927Z,6.40
2022-12-25T01:25:27.569Z,5.80
2022-12-25T01:27:30.594Z,6.90
2022-12-25T01:29:33.283Z,6.40
2022-12-25T01:31:36.068Z,6.80
2022-12-25T01:33:39.073Z,7.20
2022-12-25T01:35:41.854Z,6.00
2022-12-25T01:37:44.552Z,6.10
2022-12-25T01:39:47.728Z,4.70
2022-12-25T01:41:50.456Z,9.10
2022-12-25T01:44:02.562Z,7.30
2022-12-25T01:46:05.432Z,9.80
2022-12-25T01:48:12.993Z,8.60
2022-12-25T01:50:16.406Z,9.10
2022-12-25T01:52:24.470Z,7.10
2022-12-25T01:54:32.412Z,5.50
2022-12-25T01:56:37.544Z,6.70
2022-12-25T01:58:40.543Z,7.00
2022-12-25T02:00:43.542Z,7.50
2022-12-25T02:02:47.163Z,7.20
2022-12-25T02:04:54.758Z,6.80
2022-12-25T02:06:58.032Z,6.30
2022-12-25T02:09:01.039Z,7.90
2022-12-25T02:11:04.152Z,6.00
2022-12-25T02:13:07.273Z,6.30
2022-12-25T02:15:13.636Z,6.20
2022-12-25T02:17:23.283Z,5.50
2022-12-25T02:19:46.189Z,5.00
2022-12-25T02:22:05.559Z,6.00
2022-12-25T02:24:27.948Z,5.70
2022-12-25T02:26:50.044Z,4.40
2022-12-25T02:29:00.107Z,6.20
2022-12-25T02:31:09.747Z,4.40
2022-12-25T02:33:16.225Z,5.60
2022-12-25T02:35:27.791Z,4.90
2022-12-25T02:37:39.119Z,7.00
2022-12-25T02:39:55.041Z,5.40
2022-12-25T02:42:01.015Z,4.50
2022-12-25T02:44:09.427Z,6.00
2022-12-25T02:46:15.936Z,4.70
2022-12-25T02:48:22.423Z,5.20
2022-12-25T02:50:25.722Z,5.20
2022-12-25T02:52:30.549Z,4.70
2022-12-25T02:54:36.750Z,4.80
2022-12-25T02:56:41.373Z,6.30
2022-12-25T02:58:45.484Z,4.40
2022-12-25T03:00:51.939Z,4.80
2022-12-25T03:02:57.088Z,4.50
2022-12-25T03:05:04.473Z,4.30
2022-12-25T03:07:11.066Z,5.10
2022-12-25T03:09:21.573Z,5.70
2022-12-25T03:11:24.345Z,5.60
2022-12-25T03:13:32.222Z,5.20
2022-12-25T03:15:35.474Z,5.20
2022-12-25T03:17:38.227Z,5.50
2022-12-25T03:19:41.171Z,5.40
2022-12-25T03:21:44.186Z,4.70
2022-12-25T03:23:50.328Z,5.80
2022-12-25T03:25:52.947Z,6.20
2022-12-25T03:27:58.458Z,6.30
2022-12-25T03:30:01.418Z,5.10
2022-12-25T03:32:18.833Z,5.40
2022-12-25T03:34:33.728Z,6.00
2022-12-25T03:36:47.305Z,5.30
2022-12-25T03:39:02.351Z,4.70
2022-12-25T03:41:12.325Z,4.90
2022-12-25T03:43:23.773Z,7.10
2022-12-25T03:45:32.149Z,5.60
2022-12-25T03:47:38.951Z,5.00
2022-12-25T03:49:49.612Z,5.60
2022-12-25T03:51:57.524Z,5.00
2022-12-25T03:54:05.657Z,5.30
2022-12-25T03:56:09.087Z,5.50
2022-12-25T03:58:18.434Z,5.10
2022-12-25T04:00:21.274Z,5.10
2022-12-25T04:02:24.032Z,6.20
2022-12-25T04:04:26.934Z,5.10
2022-12-25T04:06:32.820Z,5.40
2022-12-25T04:08:35.558Z,5.30
2022-12-25T04:10:38.198Z,4.70
2022-12-25T04:12:40.853Z,5.20
2022-12-25T04:14:43.480Z,6.00
2022-12-25T04:16:46.149Z,4.70
2022-12-25T04:18:48.885Z,5.60
2022-12-25T04:20:51.579Z,5.90
2022-12-25T04:22:54.181Z,5.70
2022-12-25T04:24:56.781Z,5.80
2022-12-25T04:26:59.558Z,5.90
2022-12-25T04:29:02.220Z,6.80
2022-12-25T04:31:05.167Z,6.20
2022-12-25T04:33:07.874Z,6.60
2022-12-25T04:35:11.096Z,6.50
2022-12-25T04:37:13.869Z,5.80
2022-12-25T04:39:16.676Z,7.30
2022-12-25T04:41:19.382Z,6.20
2022-12-25T04:43:22.083Z,5.90
2022-12-25T04:45:24.759Z,5.80
2022-12-25T04:47:27.528Z,6.30
2022-12-25T04:49:30.218Z,6.60
2022-12-25T04:51:32.882Z,7.10
2022-12-25T04:53:35.553Z,5.90
2022-12-25T04:55:38.338Z,5.10
2022-12-25T04:57:41.058Z,6.00
2022-12-25T04:59:44.562Z,5.70
2022-12-25T05:01:47.350Z,6.50
2022-12-25T05:03:50.123Z,6.20
2022-12-25T05:05:52.832Z,5.60
2022-12-25T05:07:56.604Z,6.40
2022-12-25T05:09:59.407Z,6.60
2022-12-25T05:12:02.145Z,5.80
2022-12-25T05:14:04.911Z,5.80
2022-12-25T05:16:11.142Z,6.90
2022-12-25T05:18:13.974Z,5.90
2022-12-25T05:20:16.759Z,6.20
2022-12-25T05:22:19.427Z,5.90
2022-12-25T05:24:26.021Z,5.20
2022-12-25T05:26:28.653Z,5.80
2022-12-25T05:28:31.409Z,7.50
2022-12-25T05:30:34.384Z,6.40
2022-12-25T05:32:37.196Z,6.50
2022-12-25T05:34:40.052Z,7.60
2022-12-25T05:36:42.818Z,7.30
2022-12-25T05:38:47.307Z,6.40
2022-12-25T05:40:51.167Z,6.70
2022-12-25T05:42:53.881Z,7.80
2022-12-25T05:44:56.636Z,6.80
2022-12-25T05:46:59.431Z,6.30
2022-12-25T05:49:02.173Z,7.00
2022-12-25T05:51:06.705Z,7.60
2022-12-25T05:53:12.002Z,6.40
2022-12-25T05:55:15.023Z,5.30
2022-12-25T05:57:17.720Z,6.20
2022-12-25T05:59:20.435Z,7.10
2022-12-25T06:01:24.482Z,6.50
2022-12-25T06:03:27.748Z,6.20
2022-12-25T06:05:31.072Z,6.20
2022-12-25T06:07:33.763Z,7.70
2022-12-25T06:09:36.967Z,6.10
2022-12-25T06:11:40.425Z,7.20
2022-12-25T06:13:43.752Z,7.10
2022-12-25T06:15:46.555Z,8.80
2022-12-25T06:17:49.505Z,7.10
2022-12-25T06:19:52.662Z,7.50
2022-12-25T06:21:56.241Z,7.00
2022-12-25T06:24:01.024Z,7.70
2022-12-25T06:26:05.768Z,7.90
2022-12-25T06:28:08.697Z,7.80
2022-12-25T06:30:12.480Z,8.20
2022-12-25T06:32:15.438Z,9.30
2022-12-25T06:34:18.140Z,13.20
2022-12-25T06:36:22.789Z,7.30
2022-12-25T06:38:25.635Z,7.90
2022-12-25T06:40:28.486Z,7.60
2022-12-25T06:42:31.238Z,7.40
2022-12-25T06:44:33.853Z,7.70
2022-12-25T06:46:36.684Z,8.10
2022-12-25T06:48:40.776Z,6.90
2022-12-25T06:50:43.716Z,7.80
2022-12-25T06:52:46.414Z,7.40
2022-12-25T06:54:49.063Z,8.30
2022-12-25T06:56:51.715Z,7.70
2022-12-25T06:58:56.416Z,7.80
2022-12-25T07:00:59.351Z,10.10
2022-12-25T07:03:02.462Z,7.00
2022-12-25T07:05:06.666Z,8.40
2022-12-25T07:07:11.080Z,7.90
2022-12-25T07:09:13.894Z,8.70
2022-12-25T07:11:17.148Z,8.40
2022-12-25T07:13:19.973Z,8.50
2022-12-25T07:15:22.595Z,8.50
2022-12-25T07:17:25.290Z,8.20
2022-12-25T07:19:28.092Z,9.20
2022-12-25T07:21:30.758Z,7.20
2022-12-25T07:23:33.859Z,7.40
2022-12-25T07:25:37.575Z,8.20
2022-12-25T07:27:40.414Z,8.10
2022-12-25T07:29:43.172Z,7.70
2022-12-25T07:31:46.537Z,7.60
2022-12-25T07:33:51.936Z,9.60
2022-12-25T07:35:54.629Z,9.10
2022-12-25T07:37:57.278Z,9.30
2022-12-25T07:40:00.071Z,10.10
2022-12-25T07:42:03.096Z,10.40
2022-12-25T07:44:06.049Z,8.70
2022-12-25T07:46:09.137Z,8.00
2022-12-25T07:48:16.461Z,9.20
2022-12-25T07:50:19.712Z,9.10
2022-12-25T07:52:22.427Z,9.90
2022-12-25T07:54:25.205Z,8.70
2022-12-25T07:56:27.976Z,9.10
2022-12-25T07:58:31.127Z,8.50
2022-12-25T08:00:33.784Z,8.10
2022-12-25T08:02:36.961Z,7.60
2022-12-25T08:04:41.025Z,8.40
2022-12-25T08:06:43.703Z,8.00
2022-12-25T08:08:46.410Z,8.60
2022-12-25T08:10:49.052Z,10.40
2022-12-25T08:12:54.508Z,6.80
2022-12-25T08:14:57.413Z,9.30
2022-12-25T08:17:00.161Z,8.60
2022-12-25T08:19:02.967Z,9.50
2022-12-25T08:21:07.920Z,8.10
2022-12-25T08:23:10.640Z,9.60
2022-12-25T08:25:13.360Z,10.30
2022-12-25T08:27:16.204Z,8.90
2022-12-25T08:29:18.915Z,8.80
2022-12-25T08:31:24.051Z,9.80
2022-12-25T08:33:26.878Z,7.90
2022-12-25T08:35:29.767Z,9.40
2022-12-25T08:37:32.559Z,8.90
2022-12-25T08:39:35.261Z,15.00
2022-12-25T08:41:37.956Z,9.60
2022-12-25T08:43:41.109Z,11.20
2022-12-25T08:45:46.659Z,9.30
2022-12-25T08:47:54.406Z,9.30
2022-12-25T08:49:57.139Z,9.00
2022-12-25T08:52:00.046Z,8.40
2022-12-25T08:54:02.898Z,8.60
2022-12-25T08:56:06.564Z,9.20
2022-12-25T08:58:09.375Z,9.70
2022-12-25T09:00:13.858Z,12.00
2022-12-25T09:02:17.676Z,10.70
2022-12-25T09:04:20.440Z,9.70
2022-12-25T09:06:23.076Z,10.30
2022-12-25T09:08:25.823Z,11.10
2022-12-25T09:10:28.591Z,11.50
2022-12-25T09:12:31.283Z,10.90
2022-12-25T09:14:33.966Z,9.90
2022-12-25T09:16:36.689Z,11.70
2022-12-25T09:18:39.931Z,11.40
2022-12-25T09:20:42.596Z,10.60
2022-12-25T09:22:45.184Z,10.50
2022-12-25T09:24:47.815Z,10.10
2022-12-25T09:26:51.644Z,8.40
2022-12-25T09:28:54.298Z,8.00
2022-12-25T09:30:57.405Z,11.50
2022-12-25T09:33:00.127Z,9.20
2022-12-25T09:35:02.831Z,10.70
2022-12-25T09:37:05.540Z,9.10
2022-12-25T09:39:08.180Z,10.20
2022-12-25T09:41:16.430Z,9.40
2022-12-25T09:43:20.915Z,10.70
2022-12-25T09:45:27.784Z,9.70
2022-12-25T09:47:33.365Z,10.40
2022-12-25T09:49:41.536Z,10.10
2022-12-25T09:51:47.979Z,10.80
2022-12-25T09:53:59.464Z,9.90
2022-12-25T09:56:09.996Z,13.40
2022-12-25T09:58:13.309Z,10.20
2022-12-25T10:00:18.920Z,9.70
2022-12-25T10:02:42.472Z,10.10
2022-12-25T10:05:01.045Z,10.80
2022-12-25T10:07:13.884Z,11.30
2022-12-25T10:09:32.849Z,9.90
2022-12-25T10:11:48.848Z,11.30
2022-12-25T10:14:12.069Z,16.30
2022-12-25T10:16:26.162Z,11.50
2022-12-25T10:18:47.384Z,9.10
2022-12-25T10:20:52.596Z,10.20
2022-12-25T10:22:59.547Z,9.50
2022-12-25T10:25:03.645Z,10.30
2022-12-25T10:27:14.047Z,9.00
2022-12-25T10:29:18.230Z,8.60
2022-12-25T10:31:22.971Z,8.90
2022-12-25T10:33:26.795Z,8.70
2022-12-25T10:35:30.212Z,8.40
2022-12-25T10:37:32.913Z,9.70
2022-12-25T10:39:38.485Z,8.50
2022-12-25T10:42:03.777Z,8.30
2022-12-25T10:44:14.049Z,8.50
2022-12-25T10:46:17.981Z,7.80
2022-12-25T10:48:25.033Z,8.70
2022-12-25T10:50:28.134Z,8.00
2022-12-25T10:52:30.996Z,8.50
2022-12-25T10:54:36.111Z,8.20
2022-12-25T10:56:38.844Z,7.40
2022-12-25T10:58:41.592Z,7.80
2022-12-25T11:00:52.627Z,8.60
2022-12-25T11:02:55.857Z,8.80
2022-12-25T11:05:04.161Z,6.90
2022-12-25T11:07:14.229Z,8.40
2022-12-25T11:09:17.129Z,9.00
2022-12-25T11:11:20.239Z,7.50
2022-12-25T11:13:25.492Z,8.00
2022-12-25T11:15:46.860Z,7.30
2022-12-25T11:17:49.694Z,6.60
2022-12-25T11:19:54.256Z,8.30
2022-12-25T11:21:59.610Z,7.30
2022-12-25T11:24:04.020Z,7.40
2022-12-25T11:26:09.978Z,8.40
2022-12-25T11:28:12.718Z,8.50
2022-12-25T11:30:16.161Z,7.10
2022-12-25T11:32:27.122Z,7.50
2022-12-25T11:34:33.450Z,7.60
2022-12-25T11:36:43.467Z,9.10
2022-12-25T11:38:46.264Z,7.00
2022-12-25T11:40:51.614Z,8.00
2022-12-25T11:43:04.043Z,7.90
2022-12-25T11:45:16.060Z,7.70
2022-12-25T11:47:23.798Z,7.80
2022-12-25T11:49:27.548Z,7.30
2022-12-25T11:51:35.054Z,6.40
2022-12-25T11:53:43.941Z,7.80
2022-12-25T11:55:49.863Z,7.30
2022-12-25T11:57:58.353Z,7.10
2022-12-25T12:00:04.325Z,7.50
2022-12-25T12:02:23.562Z,6.90
2022-12-25T12:04:35.149Z,6.70
2022-12-25T12:06:51.527Z,7.70
2022-12-25T12:09:01.633Z,7.10
2022-12-25T12:11:16.203Z,6.60
2022-12-25T12:13:36.257Z,6.60
2022-12-25T12:15:43.080Z,6.70
2022-12-25T12:17:45.745Z,7.90
2022-12-25T12:19:48.457Z,6.30
2022-12-25T12:21:52.509Z,7.00
2022-12-25T12:24:04.243Z,7.80
2022-12-25T12:26:07.160Z,7.50
2022-12-25T12:28:19.532Z,6.40
2022-12-25T12:30:26.335Z,6.50
2022-12-25T12:32:36.594Z,9.90
2022-12-25T12:34:45.347Z,8.00
2022-12-25T12:36:49.493Z,8.40
2022-12-25T12:38:53.114Z,8.00
2022-12-25T12:40:58.887Z,8.00
2022-12-25T12:43:02.561Z,8.20
2022-12-25T12:45:14.229Z,9.00
2022-12-25T12:47:30.268Z,9.30
2022-12-25T12:49:33.013Z,7.80
2022-12-25T12:51:37.251Z,7.50
2022-12-25T12:53:41.063Z,8.10
2022-12-25T12:55:43.897Z,7.80
2022-12-25T12:57:57.007Z,8.70
2022-12-25T13:00:04.791Z,7.90
2022-12-25T13:02:38.818Z,7.80
2022-12-25T13:04:51.352Z,8.30
2022-12-25T13:07:02.831Z,7.90
2022-12-25T13:09:17.176Z,9.00
2022-12-25T13:11:22.112Z,9.80
2022-12-25T13:13:36.107Z,10.40
2022-12-25T13:15:39.283Z,9.50
2022-12-25T13:17:44.891Z,9.70
2022-12-25T13:19:51.933Z,10.70
2022-12-25T13:21:56.624Z,10.90
2022-12-25T13:24:01.440Z,10.70
2022-12-25T13:26:10.950Z,10.50
2022-12-25T13:28:14.823Z,12.20
2022-12-25T13:30:20.919Z,10.80
2022-12-25T13:32:26.552Z,12.00
2022-12-25T13:34:31.847Z,12.00
2022-12-25T13:36:37.838Z,11.40
2022-12-25T13:38:44.738Z,13.30
2022-12-25T13:40:52.849Z,12.40
2022-12-25T13:42:58.587Z,13.60
2022-12-25T13:45:03.797Z,14.50
2022-12-25T13:47:17.743Z,13.30
2022-12-25T13:49:22.634Z,12.40
2022-12-25T13:51:25.483Z,12.50
2022-12-25T13:53:28.367Z,13.30
2022-12-25T13:55:32.602Z,14.40
2022-12-25T13:57:38.975Z,13.70
2022-12-25T13:59:44.337Z,13.40
2022-12-25T14:01:48.275Z,14.00
2022-12-25T14:03:51.055Z,13.20
2022-12-25T14:05:58.062Z,13.90
2022-12-25T14:08:03.455Z,14.30
2022-12-25T14:10:11.713Z,12.40
2022-12-25T14:12:19.304Z,14.20
2022-12-25T14:14:24.840Z,14.60
2022-12-25T14:16:29.231Z,12.30
2022-12-25T14:18:32.690Z,13.10
2022-12-25T14:20:39.395Z,13.20
2022-12-25T14:22:48.204Z,12.90
2022-12-25T14:24:51.305Z,13.70
2022-12-25T14:26:59.814Z,14.60
2022-12-25T14:29:17.583Z,13.60
2022-12-25T14:31:22.988Z,13.70
2022-12-25T14:33:26.731Z,15.40
2022-12-25T14:35:29.688Z,14.20
2022-12-25T14:37:33.374Z,14.90
2022-12-25T14:39:37.821Z,14.30
2022-12-25T14:41:40.533Z,15.20
2022-12-25T14:43:51.935Z,14.70
2022-12-25T14:45:56.688Z,15.70
2022-12-25T14:48:00.911Z,15.20
2022-12-25T14:50:14.689Z,15.50
2022-12-25T14:52:21.948Z,16.10
2022-12-25T14:54:26.043Z,15.90
2022-12-25T14:56:30.795Z,16.60
2022-12-25T14:58:40.610Z,17.30
2022-12-25T15:00:43.379Z,18.50
2022-12-25T15:02:47.659Z,17.30
2022-12-25T15:04:50.539Z,16.50
2022-12-25T15:06:54.865Z,18.40
2022-12-25T15:08:59.925Z,19.10
2022-12-25T15:11:03.606Z,19.10
2022-12-25T15:13:07.154Z,18.90
2022-12-25T15:15:10.751Z,25.40
2022-12-25T15:17:22.659Z,24.10
2022-12-25T15:19:34.818Z,20.20
2022-12-25T15:21:40.908Z,18.10
2022-12-25T15:23:43.668Z,18.30
2022-12-25T15:25:46.538Z,18.00
2022-12-25T15:27:49.295Z,18.30
2022-12-25T15:32:18.438Z,18.30
2022-12-25T15:34:21.169Z,18.60
2022-12-25T15:36:24.608Z,25.90
2022-12-25T15:38:27.311Z,19.40
2022-12-25T15:40:29.960Z,19.90
2022-12-25T15:42:33.219Z,18.80
2022-12-25T15:44:36.018Z,20.20
2022-12-25T15:46:39.148Z,21.50
2022-12-25T15:48:41.988Z,21.00
2022-12-25T15:50:44.778Z,18.40
2022-12-25T15:52:48.035Z,19.60
2022-12-25T15:54:50.805Z,21.20
2022-12-25T15:56:56.132Z,18.10
2022-12-25T15:58:58.799Z,17.30
2022-12-25T16:01:01.570Z,17.30
2022-12-25T16:03:04.535Z,17.80
2022-12-25T16:05:10.712Z,15.90
2022-12-25T16:07:16.055Z,19.40
2022-12-25T16:09:19.734Z,16.60
2022-12-25T16:11:22.979Z,16.70
2022-12-25T16:13:25.813Z,15.40
2022-12-25T16:15:28.512Z,15.10
2022-12-25T16:17:31.353Z,14.20
2022-12-25T16:19:36.720Z,15.00
2022-12-25T16:21:42.173Z,16.10
2022-12-25T16:23:45.250Z,24.90
2022-12-25T16:25:47.881Z,19.90
2022-12-25T16:27:50.590Z,19.50
2022-12-25T16:29:53.232Z,17.80
2022-12-25T16:31:55.831Z,16.80
2022-12-25T16:33:58.883Z,18.10
2022-12-25T16:36:01.679Z,20.40
2022-12-25T16:38:04.653Z,19.00
2022-12-25T16:40:09.384Z,18.80
2022-12-25T16:42:12.158Z,19.80
2022-12-25T16:44:17.682Z,19.00
2022-12-25T16:46:21.565Z,17.50
2022-12-25T16:48:24.431Z,15.90
2022-12-25T16:50:27.088Z,18.70
2022-12-25T16:52:30.317Z,18.50
2022-12-25T16:54:32.923Z,16.60
2022-12-25T16:56:35.758Z,17.40
2022-12-25T16:58:38.585Z,18.40
2022-12-25T17:00:47.335Z,19.00
2022-12-25T17:02:52.176Z,20.10
2022-12-25T17:04:55.199Z,19.20
2022-12-25T17:06:57.980Z,22.20
2022-12-25T17:09:01.346Z,22.00
2022-12-25T17:11:05.208Z,21.30
2022-12-25T17:13:07.949Z,20.20
2022-12-25T17:15:11.942Z,21.30
2022-12-25T17:17:14.609Z,20.30
2022-12-25T17:19:19.430Z,20.90
2022-12-25T17:21:22.393Z,19.90
2022-12-25T17:23:25.111Z,20.60
2022-12-25T17:25:28.051Z,20.20
2022-12-25T17:27:30.928Z,21.30
2022-12-25T17:29:33.721Z,20.50
2022-12-25T17:31:36.827Z,20.70
2022-12-25T17:33:41.060Z,20.90
2022-12-25T17:35:43.800Z,19.40
2022-12-25T17:37:46.486Z,21.00
2022-12-25T17:39:49.150Z,18.90
2022-12-25T17:41:51.862Z,18.70
2022-12-25T17:43:54.646Z,17.30
2022-12-25T17:46:02.550Z,18.70
2022-12-25T17:48:05.440Z,18.80
2022-12-25T17:50:09.002Z,18.30
2022-12-25T17:52:11.792Z,17.70
2022-12-25T17:54:14.602Z,19.70
2022-12-25T17:56:18.171Z,18.10
2022-12-25T17:58:21.026Z,19.00
2022-12-25T18:00:23.914Z,18.50
2022-12-25T18:02:26.877Z,18.60
2022-12-25T18:04:29.681Z,18.90
2022-12-25T18:06:34.837Z,17.80
2022-12-25T18:08:39.820Z,19.00
2022-12-25T18:10:43.683Z,18.90
2022-12-25T18:12:46.455Z,19.00
2022-12-25T18:14:49.405Z,19.20
2022-12-25T18:16:52.224Z,18.10
2022-12-25T18:18:55.092Z,17.50
2022-12-25T18:20:57.987Z,18.40
2022-12-25T18:23:00.953Z,19.40
2022-12-25T18:25:04.814Z,18.70
2022-12-25T18:27:07.722Z,19.40
2022-12-25T18:29:10.441Z,19.10
2022-12-25T18:31:16.270Z,20.60
2022-12-25T18:33:19.062Z,17.80
2022-12-25T18:35:21.845Z,18.80
2022-12-25T18:37:25.085Z,17.40
2022-12-25T18:39:29.774Z,18.30
2022-12-25T18:41:32.526Z,17.60
2022-12-25T18:43:53.428Z,22.10
2022-12-25T18:45:58.626Z,21.00
2022-12-25T18:48:01.564Z,21.60
2022-12-25T18:50:06.948Z,19.90
2022-12-25T18:52:47.576Z,20.80
2022-12-25T18:54:32.585Z,20.60
2022-12-25T18:56:35.386Z,20.00
2022-12-25T18:58:38.730Z,22.30
2022-12-25T19:00:42.520Z,20.30
2022-12-25T19:02:45.944Z,21.20
2022-12-25T19:04:48.808Z,20.50
2022-12-25T19:06:51.633Z,19.20
2022-12-25T19:08:54.850Z,20.90
2022-12-25T19:10:57.596Z,19.40
2022-12-25T19:13:00.630Z,19.60
2022-12-25T19:15:04.070Z,18.70
2022-12-25T19:17:10.317Z,17.10
2022-12-25T19:19:13.489Z,17.80
2022-12-25T19:21:16.285Z,20.20
2022-12-25T19:23:19.370Z,18.70
2022-12-25T19:25:22.275Z,21.60
2022-12-25T19:27:25.483Z,20.90
2022-12-25T19:29:28.548Z,23.70
2022-12-25T19:31:31.565Z,22.30
2022-12-25T19:33:37.230Z,22.60
2022-12-25T19:35:41.293Z,24.20
2022-12-25T19:37:45.146Z,21.60
2022-12-25T19:39:48.594Z,24.70
2022-12-25T19:41:51.296Z,24.00
2022-12-25T19:43:54.223Z,21.10
2022-12-25T19:45:57.394Z,23.00
2022-12-25T19:48:00.248Z,22.30
2022-12-25T19:50:03.858Z,22.00
2022-12-25T19:52:07.460Z,21.90
2022-12-25T19:54:13.521Z,21.20
2022-12-25T19:56:17.506Z,22.50
2022-12-25T19:58:21.104Z,20.90
2022-12-25T20:00:24.652Z,22.80
2022-12-25T20:02:27.496Z,21.30
2022-12-25T20:04:30.485Z,20.80
2022-12-25T20:06:34.522Z,21.70
2022-12-25T20:08:37.243Z,22.20
2022-12-25T20:10:43.288Z,23.00
2022-12-25T20:12:46.197Z,23.90
2022-12-25T20:14:49.434Z,22.80
2022-12-25T20:16:55.356Z,26.90
2022-12-25T20:18:59.003Z,26.10
2022-12-25T20:21:03.704Z,26.00
2022-12-25T20:23:06.962Z,24.70
2022-12-25T20:25:10.212Z,27.40
2022-12-25T20:27:15.774Z,27.80
2022-12-25T20:29:18.993Z,33.80
2022-12-25T20:31:23.949Z,36.40
2022-12-25T20:33:26.679Z,34.50
2022-12-25T20:35:32.328Z,31.00
2022-12-25T20:37:35.009Z,34.20
2022-12-25T20:39:38.495Z,35.40
2022-12-25T20:41:41.398Z,30.70
2022-12-25T20:43:45.741Z,25.90
2022-12-25T20:45:50.633Z,26.00
2022-12-25T20:47:53.583Z,25.80
2022-12-25T20:49:56.554Z,27.70
2022-12-25T20:52:04.921Z,27.70
2022-12-25T20:54:09.573Z,28.50
2022-12-25T20:56:14.416Z,25.80
2022-12-25T20:58:17.654Z,26.00
2022-12-25T21:00:20.585Z,25.10
2022-12-25T21:02:33.899Z,25.00
2022-12-25T21:04:38.918Z,24.80
2022-12-25T21:06:41.816Z,26.90
2022-12-25T21:08:45.332Z,25.50
2022-12-25T21:10:50.594Z,26.70
2022-12-25T21:12:53.823Z,26.70
2022-12-25T21:14:56.656Z,25.10
2022-12-25T21:16:59.485Z,24.60
2022-12-25T21:19:02.259Z,24.90
2022-12-25T21:21:06.694Z,24.90
2022-12-25T21:23:09.398Z,24.10
2022-12-25T21:25:12.046Z,23.60
2022-12-25T21:27:14.750Z,23.90
2022-12-25T21:29:18.953Z,24.70
2022-12-25T21:31:22.987Z,23.90
2022-12-25T21:33:25.991Z,27.40
2022-12-25T21:35:28.684Z,25.80
2022-12-25T21:37:32.038Z,26.10
2022-12-25T21:39:34.785Z,27.60
2022-12-25T21:41:38.651Z,29.10
2022-12-25T21:43:41.535Z,28.10
2022-12-25T21:45:44.327Z,27.40
2022-12-25T21:48:00.188Z,26.70
2022-12-25T21:50:07.010Z,28.00
2022-12-25T21:52:09.823Z,27.70
2022-12-25T21:54:14.160Z,27.30
2022-12-25T21:56:17.553Z,28.20
2022-12-25T21:58:20.335Z,27.90
2022-12-25T22:00:23.640Z,30.30
2022-12-25T22:02:29.518Z,29.60
2022-12-25T22:04:34.053Z,29.70
2022-12-25T22:06:36.799Z,44.00
2022-12-25T22:08:39.557Z,30.80
2022-12-25T22:10:42.208Z,27.10
2022-12-25T22:12:44.918Z,28.00
2022-12-25T22:14:52.804Z,29.50
2022-12-25T22:16:56.323Z,29.20
2022-12-25T22:18:58.965Z,30.60
2022-12-25T22:21:01.635Z,39.20
2022-12-25T22:23:04.765Z,30.80
2022-12-25T22:25:08.533Z,31.60
2022-12-25T22:27:11.417Z,29.10
2022-12-25T22:29:14.037Z,29.40
2022-12-25T22:31:16.781Z,28.10
2022-12-25T22:33:19.502Z,28.90
2022-12-25T22:35:22.906Z,28.70
2022-12-25T22:37:25.659Z,27.20
2022-12-25T22:39:31.710Z,27.40
2022-12-25T22:41:34.411Z,26.90
2022-12-25T22:44:15.259Z,32.00
2022-12-25T22:46:00.742Z,27.50
2022-12-25T22:48:03.658Z,28.40
2022-12-25T22:50:07.728Z,27.80
2022-12-25T22:52:10.413Z,25.10
2022-12-25T22:54:14.066Z,26.60
2022-12-25T22:56:16.831Z,25.60
2022-12-25T22:58:19.531Z,23.90
2022-12-25T23:00:22.232Z,25.10
2022-12-25T23:02:25.175Z,25.00
2022-12-25T23:04:29.235Z,24.40
2022-12-25T23:06:32.597Z,23.70
2022-12-25T23:08:35.270Z,22.70
2022-12-25T23:10:37.928Z,24.00
2022-12-25T23:12:40.598Z,24.80
2022-12-25T23:14:43.291Z,24.50
2022-12-25T23:16:46.060Z,24.00
2022-12-25T23:18:48.773Z,23.70
2022-12-25T23:20:51.430Z,23.60
2022-12-25T23:22:54.052Z,23.50
2022-12-25T23:24:57.365Z,24.60
2022-12-25T23:27:00.109Z,23.20
2022-12-25T23:29:02.939Z,25.20
2022-12-25T23:31:05.696Z,25.10
2022-12-25T23:33:08.408Z,22.50
2022-12-25T23:35:11.972Z,25.90
2022-12-25T23:37:14.818Z,23.20
2022-12-25T23:39:17.493Z,23.30
2022-12-25T23:41:20.284Z,24.50
2022-12-25T23:43:22.928Z,26.50
2022-12-25T23:45:25.571Z,26.20
2022-12-25T23:47:28.386Z,25.50
2022-12-25T23:49:31.069Z,25.00
2022-12-25T23:51:35.019Z,25.00
2022-12-25T23:53:37.703Z,26.50
2022-12-25T23:55:40.312Z,24.80
2022-12-25T23:57:42.985Z,30.00
2022-12-25T23:59:45.892Z,27.30
